Terminal Aerodrome Forecast
Issued by NWS

Home | Current Version | Previous Version | Text Only | Print | Product List | Glossary On
Versions: 1 2 3 4 5 6 7 8 9 10 11 12 13 14 15 16
000
FTUS44 KEPZ 230500
TAFTCS
TAF
KTCS 230528Z 2306/2406 25007KT P6SM SCT150 BKN250
     FM231600 21011G20KT P6SM SCT250
     FM232000 24022G32KT P6SM FEW250
     FM240200 26011KT P6SM SKC=

USA.gov is the U.S. government's official web portal to all federal, state and local government web resources and services.